createdAt,value
2023-03-23T15:59:50.648Z,27.01
2023-03-23T16:03:01.418Z,27.46
2023-03-23T16:06:04.119Z,28.42
2023-03-23T16:09:19.383Z,28.64
2023-03-23T16:12:21.953Z,29.04
2023-03-23T16:15:24.516Z,29.18
2023-03-23T16:18:27.494Z,29.62
2023-03-23T16:21:30.211Z,30.13
2023-03-23T16:24:33.146Z,30.04
2023-03-23T16:27:36.472Z,30.27
2023-03-23T16:30:40.052Z,31.14
2023-03-23T16:33:42.826Z,31.38
2023-03-23T16:36:45.766Z,31.26
2023-03-23T16:39:48.444Z,32.00
2023-03-23T16:42:51.311Z,31.80
2023-03-23T16:45:57.446Z,32.24
2023-03-23T16:49:01.427Z,32.53
2023-03-23T16:52:03.999Z,32.62
2023-03-23T16:55:07.153Z,32.72
2023-03-23T16:58:17.081Z,33.57
2023-03-23T17:01:20.781Z,33.77
2023-03-23T17:04:23.611Z,33.95
2023-03-23T17:07:26.261Z,33.98
2023-03-23T17:10:29.756Z,34.48
2023-03-23T17:13:32.653Z,34.36
2023-03-23T17:16:35.321Z,35.14
2023-03-23T17:19:38.116Z,35.03
2023-03-23T17:22:41.130Z,35.47
2023-03-23T17:25:50.535Z,35.62
2023-03-23T17:28:53.305Z,35.74
2023-03-23T17:31:56.166Z,36.17
2023-03-23T17:35:00.353Z,36.05
2023-03-23T17:38:04.370Z,36.46
2023-03-23T17:41:32.260Z,36.26
2023-03-23T17:44:35.126Z,36.33
2023-03-23T17:47:38.658Z,36.17
2023-03-23T17:50:41.650Z,35.99
2023-03-23T17:53:45.915Z,36.51
2023-03-23T17:56:50.208Z,36.74
2023-03-23T17:59:53.871Z,36.86
2023-03-23T18:02:57.124Z,37.07
2023-03-23T18:06:03.272Z,36.74
2023-03-23T18:09:06.461Z,37.01
2023-03-23T18:12:09.976Z,37.40
2023-03-23T18:15:13.320Z,37.69
2023-03-23T18:18:16.604Z,37.66
2023-03-23T18:21:20.111Z,37.84
2023-03-23T18:24:24.180Z,38.13
2023-03-23T18:27:29.304Z,38.06
2023-03-23T18:30:34.032Z,38.62
2023-03-23T18:33:38.670Z,38.64
2023-03-23T18:36:42.296Z,38.98
2023-03-23T18:39:47.231Z,39.23
2023-03-23T18:42:51.266Z,39.33
2023-03-23T18:45:57.238Z,39.79
2023-03-23T18:49:01.112Z,39.92
2023-03-23T18:52:05.185Z,40.19
2023-03-23T18:55:10.335Z,40.61
2023-03-23T18:58:15.552Z,40.46
2023-03-23T19:01:19.777Z,40.68
2023-03-23T19:04:27.212Z,40.77
2023-03-23T19:07:32.215Z,40.76
2023-03-23T19:10:42.794Z,40.91
2023-03-23T19:13:57.953Z,40.78
2023-03-23T19:17:02.110Z,41.00
2023-03-23T19:20:14.634Z,40.97
2023-03-23T19:23:23.961Z,41.32
2023-03-23T19:26:33.915Z,41.32
2023-03-23T19:29:40.065Z,41.33
2023-03-23T19:32:43.632Z,41.37
2023-03-23T19:36:05.874Z,41.78
2023-03-23T19:39:16.473Z,42.20
2023-03-23T19:42:22.650Z,42.36
2023-03-23T19:45:26.864Z,42.94
2023-03-23T19:48:31.760Z,43.08
2023-03-23T19:51:36.427Z,43.34
2023-03-23T19:54:41.035Z,44.06
2023-03-23T19:57:45.198Z,43.88
2023-03-23T20:00:49.181Z,44.35
2023-03-23T20:03:52.670Z,44.18
2023-03-23T20:07:00.033Z,44.88
2023-03-23T20:10:06.193Z,45.08
2023-03-23T20:13:12.422Z,44.92
2023-03-23T20:16:37.390Z,44.78
2023-03-23T20:19:42.225Z,44.92
2023-03-23T20:22:46.312Z,44.55
2023-03-23T20:25:50.359Z,44.55
2023-03-23T20:28:53.864Z,44.59
2023-03-23T20:32:07.452Z,44.34
2023-03-23T20:35:11.679Z,44.66
2023-03-23T20:38:16.850Z,44.39
2023-03-23T20:41:21.257Z,44.44
2023-03-23T20:44:28.280Z,44.49
2023-03-23T20:47:33.761Z,44.51
2023-03-23T20:50:37.789Z,44.50
2023-03-23T20:53:41.615Z,44.46
2023-03-23T20:56:46.268Z,44.28
2023-03-23T20:59:51.518Z,43.88
2023-03-23T21:02:56.110Z,43.94
2023-03-23T21:05:59.360Z,44.83
2023-03-23T21:09:03.706Z,45.37
2023-03-23T21:12:10.078Z,45.57
2023-03-23T21:15:13.686Z,45.27
2023-03-23T21:18:17.083Z,44.84
2023-03-23T21:21:20.196Z,45.21
2023-03-23T21:24:28.591Z,44.98
2023-03-23T21:27:31.422Z,44.96
2023-03-23T21:30:34.099Z,45.02
2023-03-23T21:33:37.298Z,45.16
2023-03-23T21:36:40.306Z,45.04
2023-03-23T21:39:43.064Z,45.12
2023-03-23T21:42:48.961Z,45.80
2023-03-23T21:45:55.988Z,45.51
2023-03-23T21:48:59.165Z,45.77
2023-03-23T21:52:02.801Z,45.58
2023-03-23T21:55:06.258Z,44.60
2023-03-23T21:58:09.789Z,44.70
2023-03-23T22:01:13.117Z,44.83
2023-03-23T22:04:17.147Z,45.16
2023-03-23T22:07:23.167Z,45.04
2023-03-23T22:10:26.038Z,45.24
2023-03-23T22:13:31.554Z,45.54
2023-03-23T22:16:34.874Z,46.01
2023-03-23T22:19:37.614Z,46.75
2023-03-23T22:22:40.559Z,46.65
2023-03-23T22:25:43.477Z,46.65
2023-03-23T22:28:47.652Z,46.92
2023-03-23T22:31:50.939Z,45.84
2023-03-23T22:34:53.676Z,46.17
2023-03-23T22:37:56.287Z,45.87
2023-03-23T22:41:02.418Z,45.90
2023-03-23T22:44:07.886Z,46.51
2023-03-23T22:47:10.385Z,46.85
2023-03-23T22:50:12.963Z,46.57
2023-03-23T22:53:18.121Z,46.63
2023-03-23T22:56:21.499Z,46.75
2023-03-23T22:59:24.157Z,46.55
2023-03-23T23:02:26.991Z,46.78
2023-03-23T23:05:29.619Z,46.27
2023-03-23T23:08:32.976Z,46.51
2023-03-23T23:11:35.587Z,46.52
2023-03-23T23:14:43.283Z,46.82
2023-03-23T23:17:46.176Z,46.96
2023-03-23T23:20:54.848Z,47.45
2023-03-23T23:23:58.093Z,47.97
2023-03-23T23:27:00.916Z,47.91
2023-03-23T23:30:06.674Z,48.01
2023-03-23T23:33:09.551Z,47.92
2023-03-23T23:36:12.346Z,48.05
2023-03-23T23:39:15.480Z,48.52
2023-03-23T23:42:18.067Z,48.78
2023-03-23T23:45:23.029Z,48.88
2023-03-23T23:48:25.697Z,49.04
2023-03-23T23:51:29.478Z,48.95
2023-03-23T23:54:32.146Z,48.83
2023-03-23T23:57:35.145Z,49.11
